• Join FlightAware (Why Join?)
  • Login
  • US Flag 
 
09:35AM EST


 

Airport Tracker/Info


-or-


 

Live Flight TrackerFlight Track Log ✈ ANT208 ✈ 15-Aug-2013 ✈ CYDA - CYXY

Flight Track Log - Related Links

Times and Time Zones

All times are in EDT time to prevent confusion due to time zone crossing. See the ANT208 flight status page for this flight to view local times or setup timezone preferences in your user account.

Time Position Orientation Groundspeed Altitude Reporting Facility
EDT Latitude Longitude Course Direction KTS MPH feet Rate Location/Type
05:05PM 62.9258 -137.6473 149° Southeast  Level Estimated
05:06PM 62.8746 -137.5827 150° Southeast  Level FlightAware Approximate
05:07PM 62.8234 -137.5183 150° Southeast  Level FlightAware Approximate
05:08PM 62.7723 -137.4541 150° Southeast  Level FlightAware Approximate
05:09PM 62.7210 -137.3902 150° Southeast  Level FlightAware Approximate
05:10PM 62.6698 -137.3265 150° Southeast  Level FlightAware Approximate
05:11PM 62.6185 -137.2630 150° Southeast  Level FlightAware Approximate
05:12PM 62.5672 -137.1997 150° Southeast  Level FlightAware Approximate
05:13PM 62.5158 -137.1366 150° Southeast  Level FlightAware Approximate
05:14PM 62.4645 -137.0738 151° Southeast  Level FlightAware Approximate
05:15PM 62.4131 -137.0112 151° Southeast  Level FlightAware Approximate
05:16PM 62.3616 -136.9487 151° Southeast  Level FlightAware Approximate
05:17PM 62.3102 -136.8866 151° Southeast  Level FlightAware Approximate
05:18PM 62.2587 -136.8246 151° Southeast  Level FlightAware Approximate
05:19PM 62.2072 -136.7628 151° Southeast  Level FlightAware Approximate
05:20PM 62.1557 -136.7012 151° Southeast  Level FlightAware Approximate
05:21PM 62.1041 -136.6398 151° Southeast  Level FlightAware Approximate
05:22PM 62.0525 -136.5787 151° Southeast  Level FlightAware Approximate
05:23PM 62.0009 -136.5178 151° Southeast  Level FlightAware Approximate
05:24PM 61.9493 -136.4570 151° Southeast  Level FlightAware Approximate
05:25PM 61.8976 -136.3965 151° Southeast  Level FlightAware Approximate
05:26PM 61.8459 -136.3362 151° Southeast  Level FlightAware Approximate
05:27PM 61.7942 -136.2760 151° Southeast  Level FlightAware Approximate
05:28PM 61.7424 -136.2161 151° Southeast  Level FlightAware Approximate
05:29PM 61.6907 -136.1564 151° Southeast  Level FlightAware Approximate
05:30PM 61.6389 -136.0969 151° Southeast  Level FlightAware Approximate
05:31PM 61.5870 -136.0376 152° Southeast  Level Estimated
05:32PM 61.5349 -135.9794 152° Southeast  Level FlightAware Approximate
05:33PM 61.4828 -135.9214 152° Southeast  Level FlightAware Approximate
05:34PM 61.4307 -135.8636 152° Southeast  Level FlightAware Approximate
05:35PM 61.3785 -135.8060 152° Southeast  Level FlightAware Approximate
05:36PM 61.3263 -135.7487 152° Southeast  Level FlightAware Approximate
05:37PM 61.2744 -135.6902 152° Southeast  Level Estimated
05:38PM 61.2223 -135.6326 152° Southeast  Level FlightAware Approximate
05:39PM 61.1702 -135.5753 152° Southeast  Level FlightAware Approximate
05:40PM 61.1183 -135.5172 150° Southeast  Level Estimated
05:41PM 61.0670 -135.4567 150° Southeast  Level FlightAware Approximate
05:42PM 61.0157 -135.3964 150° Southeast  Level FlightAware Approximate
05:43PM 60.9644 -135.3363 150° Southeast  Level FlightAware Approximate
05:44PM 60.9120 -135.2806 154° Southeast  Level Estimated
05:45PM 60.8595 -135.2250 154° Southeast  Level Estimated
05:46PM 60.8064 -135.1726 154° Southeast  Level FlightAware Approximate
05:47PM 60.7543 -135.1158 154° Southeast  Level Estimated
05:48PM 60.7095 -135.0673 North  Level Estimated
05:49PM 60.7095 -135.0673 North  Level Estimated
05:50PM 60.7095 -135.0673 North  Level Estimated
05:51PM 60.7095 -135.0673 North  Level Estimated
05:52PM 60.7095 -135.0673 North  Level Estimated
05:53PM 60.7095 -135.0673 North  Level Estimated
05:54PM 60.7095 -135.0673 North  Level Estimated
05:55PM 60.7095 -135.0673 North  Level Estimated
05:56PM 60.7095 -135.0673 North  Level Estimated
05:57PM 60.7095 -135.0673 North  Level Estimated
05:58PM 60.7095 -135.0673 North  Level Estimated
05:59PM 60.7095 -135.0673 North  Level Estimated
06:00PM 60.7095 -135.0673 North  Level Estimated
06:01PM 60.7095 -135.0673 North  Level Estimated
06:02PM 60.7095 -135.0673 North  Level Estimated
06:03PM 60.7095 -135.0673 North  Level Estimated